sensor_id;sensor_type;location;lat;lon;timestamp;P1;durP1;ratioP1;P2;durP2;ratioP2
6463;SDS011;3265;42.694;23.282;2024-02-21T00:38:00;10.50;;;7.03;;
6463;SDS011;3265;42.694;23.282;2024-02-21T00:40:28;9.60;;;6.63;;
6463;SDS011;3265;42.694;23.282;2024-02-21T00:42:55;9.50;;;6.40;;
6463;SDS011;3265;42.694;23.282;2024-02-21T00:45:24;10.27;;;7.10;;
6463;SDS011;3265;42.694;23.282;2024-02-21T00:48:00;9.53;;;6.77;;
6463;SDS011;3265;42.694;23.282;2024-02-21T00:50:29;10.57;;;7.03;;
6463;SDS011;3265;42.694;23.282;2024-02-21T00:52:56;10.43;;;7.27;;
6463;SDS011;3265;42.694;23.282;2024-02-21T00:55:25;9.13;;;6.20;;
6463;SDS011;3265;42.694;23.282;2024-02-21T00:57:52;9.27;;;6.80;;
6463;SDS011;3265;42.694;23.282;2024-02-21T01:00:19;9.57;;;6.77;;
6463;SDS011;3265;42.694;23.282;2024-02-21T01:02:47;9.57;;;6.83;;
6463;SDS011;3265;42.694;23.282;2024-02-21T01:05:14;10.17;;;6.70;;
6463;SDS011;3265;42.694;23.282;2024-02-21T01:07:40;9.87;;;6.63;;
6463;SDS011;3265;42.694;23.282;2024-02-21T01:10:08;10.63;;;7.20;;
6463;SDS011;3265;42.694;23.282;2024-02-21T01:12:36;9.37;;;6.70;;
6463;SDS011;3265;42.694;23.282;2024-02-21T01:15:05;10.97;;;7.40;;
6463;SDS011;3265;42.694;23.282;2024-02-21T01:17:35;10.47;;;7.10;;
6463;SDS011;3265;42.694;23.282;2024-02-21T01:20:12;11.30;;;7.70;;
6463;SDS011;3265;42.694;23.282;2024-02-21T01:22:39;10.33;;;7.03;;
6463;SDS011;3265;42.694;23.282;2024-02-21T01:25:06;10.23;;;6.77;;
6463;SDS011;3265;42.694;23.282;2024-02-21T01:27:34;10.47;;;6.93;;
6463;SDS011;3265;42.694;23.282;2024-02-21T01:30:02;11.63;;;7.60;;
6463;SDS011;3265;42.694;23.282;2024-02-21T01:32:30;8.90;;;6.67;;
6463;SDS011;3265;42.694;23.282;2024-02-21T01:34:57;8.97;;;6.83;;
6463;SDS011;3265;42.694;23.282;2024-02-21T01:37:33;9.33;;;7.03;;
6463;SDS011;3265;42.694;23.282;2024-02-21T01:40:00;12.83;;;8.30;;
6463;SDS011;3265;42.694;23.282;2024-02-21T01:42:28;10.53;;;8.03;;
6463;SDS011;3265;42.694;23.282;2024-02-21T01:44:54;11.50;;;8.53;;
6463;SDS011;3265;42.694;23.282;2024-02-21T01:47:23;11.00;;;7.83;;
6463;SDS011;3265;42.694;23.282;2024-02-21T01:49:51;11.83;;;7.90;;
6463;SDS011;3265;42.694;23.282;2024-02-21T01:52:21;12.87;;;8.63;;
6463;SDS011;3265;42.694;23.282;2024-02-21T01:54:48;11.47;;;8.00;;
6463;SDS011;3265;42.694;23.282;2024-02-21T01:57:17;11.43;;;8.00;;
6463;SDS011;3265;42.694;23.282;2024-02-21T01:59:44;11.17;;;7.57;;
6463;SDS011;3265;42.694;23.282;2024-02-21T02:02:19;13.10;;;7.67;;
6463;SDS011;3265;42.694;23.282;2024-02-21T02:04:50;12.67;;;7.90;;
6463;SDS011;3265;42.694;23.282;2024-02-21T02:07:18;11.50;;;7.60;;
6463;SDS011;3265;42.694;23.282;2024-02-21T02:09:45;11.00;;;7.47;;
6463;SDS011;3265;42.694;23.282;2024-02-21T02:12:12;12.97;;;8.30;;
6463;SDS011;3265;42.694;23.282;2024-02-21T02:14:41;11.23;;;7.77;;
6463;SDS011;3265;42.694;23.282;2024-02-21T02:17:08;12.50;;;8.33;;
6463;SDS011;3265;42.694;23.282;2024-02-21T02:19:54;12.87;;;8.63;;
6463;SDS011;3265;42.694;23.282;2024-02-21T02:22:28;12.37;;;8.50;;
6463;SDS011;3265;42.694;23.282;2024-02-21T02:24:58;13.87;;;9.23;;
6463;SDS011;3265;42.694;23.282;2024-02-21T02:27:28;12.90;;;8.70;;
6463;SDS011;3265;42.694;23.282;2024-02-21T02:29:55;14.23;;;9.70;;
6463;SDS011;3265;42.694;23.282;2024-02-21T02:32:22;14.43;;;9.73;;
6463;SDS011;3265;42.694;23.282;2024-02-21T02:34:48;17.70;;;10.20;;
6463;SDS011;3265;42.694;23.282;2024-02-21T02:37:15;16.50;;;10.03;;
6463;SDS011;3265;42.694;23.282;2024-02-21T02:39:42;15.27;;;10.10;;
6463;SDS011;3265;42.694;23.282;2024-02-21T02:42:13;16.53;;;10.43;;
6463;SDS011;3265;42.694;23.282;2024-02-21T02:44:39;15.43;;;10.47;;
6463;SDS011;3265;42.694;23.282;2024-02-21T02:47:09;15.33;;;9.80;;
6463;SDS011;3265;42.694;23.282;2024-02-21T02:49:46;12.93;;;9.00;;
6463;SDS011;3265;42.694;23.282;2024-02-21T02:52:15;16.07;;;9.67;;
6463;SDS011;3265;42.694;23.282;2024-02-21T02:54:43;15.60;;;10.27;;
6463;SDS011;3265;42.694;23.282;2024-02-21T02:57:11;13.47;;;9.37;;
6463;SDS011;3265;42.694;23.282;2024-02-21T02:59:38;15.43;;;9.97;;
6463;SDS011;3265;42.694;23.282;2024-02-21T03:02:05;14.67;;;9.40;;
6463;SDS011;3265;42.694;23.282;2024-02-21T03:04:31;14.87;;;9.33;;
6463;SDS011;3265;42.694;23.282;2024-02-21T03:06:58;15.07;;;9.97;;
6463;SDS011;3265;42.694;23.282;2024-02-21T03:09:25;14.33;;;9.60;;
6463;SDS011;3265;42.694;23.282;2024-02-21T03:11:53;13.80;;;9.37;;
6463;SDS011;3265;42.694;23.282;2024-02-21T03:14:23;14.23;;;9.77;;
6463;SDS011;3265;42.694;23.282;2024-02-21T03:16:51;16.33;;;9.37;;
6463;SDS011;3265;42.694;23.282;2024-02-21T03:19:20;20.10;;;10.90;;
6463;SDS011;3265;42.694;23.282;2024-02-21T03:21:47;16.60;;;10.43;;
6463;SDS011;3265;42.694;23.282;2024-02-21T03:24:15;16.83;;;10.23;;
6463;SDS011;3265;42.694;23.282;2024-02-21T03:26:43;17.40;;;10.57;;
6463;SDS011;3265;42.694;23.282;2024-02-21T03:29:11;15.33;;;10.10;;
6463;SDS011;3265;42.694;23.282;2024-02-21T03:31:42;15.93;;;10.77;;
6463;SDS011;3265;42.694;23.282;2024-02-21T03:34:09;16.20;;;10.57;;
6463;SDS011;3265;42.694;23.282;2024-02-21T03:36:37;19.30;;;11.17;;
6463;SDS011;3265;42.694;23.282;2024-02-21T03:39:03;16.33;;;10.40;;
6463;SDS011;3265;42.694;23.282;2024-02-21T03:41:30;15.70;;;10.10;;
6463;SDS011;3265;42.694;23.282;2024-02-21T03:43:57;15.10;;;10.20;;
6463;SDS011;3265;42.694;23.282;2024-02-21T03:46:24;16.27;;;10.37;;
6463;SDS011;3265;42.694;23.282;2024-02-21T03:48:52;16.37;;;10.17;;
6463;SDS011;3265;42.694;23.282;2024-02-21T03:51:22;14.50;;;9.77;;
6463;SDS011;3265;42.694;23.282;2024-02-21T03:53:49;15.30;;;10.20;;
6463;SDS011;3265;42.694;23.282;2024-02-21T03:56:16;15.73;;;9.90;;
6463;SDS011;3265;42.694;23.282;2024-02-21T03:58:42;15.20;;;10.00;;
6463;SDS011;3265;42.694;23.282;2024-02-21T04:01:09;14.73;;;10.10;;
6463;SDS011;3265;42.694;23.282;2024-02-21T04:03:37;14.47;;;10.03;;
6463;SDS011;3265;42.694;23.282;2024-02-21T04:06:08;15.20;;;10.37;;
6463;SDS011;3265;42.694;23.282;2024-02-21T04:08:37;17.23;;;10.07;;
6463;SDS011;3265;42.694;23.282;2024-02-21T04:11:05;15.53;;;10.97;;
6463;SDS011;3265;42.694;23.282;2024-02-21T04:13:32;17.57;;;11.53;;
6463;SDS011;3265;42.694;23.282;2024-02-21T04:16:01;17.93;;;11.50;;
6463;SDS011;3265;42.694;23.282;2024-02-21T04:18:28;17.23;;;11.50;;
6463;SDS011;3265;42.694;23.282;2024-02-21T04:20:55;17.90;;;12.00;;
6463;SDS011;3265;42.694;23.282;2024-02-21T04:23:23;19.30;;;11.77;;
6463;SDS011;3265;42.694;23.282;2024-02-21T04:25:50;18.57;;;11.90;;
6463;SDS011;3265;42.694;23.282;2024-02-21T04:28:17;19.57;;;12.53;;
6463;SDS011;3265;42.694;23.282;2024-02-21T04:30:48;22.57;;;12.47;;
6463;SDS011;3265;42.694;23.282;2024-02-21T04:33:15;24.17;;;14.63;;
6463;SDS011;3265;42.694;23.282;2024-02-21T04:35:41;23.07;;;14.87;;
6463;SDS011;3265;42.694;23.282;2024-02-21T04:38:08;25.50;;;15.10;;
6463;SDS011;3265;42.694;23.282;2024-02-21T04:40:37;23.73;;;14.27;;
6463;SDS011;3265;42.694;23.282;2024-02-21T04:43:04;22.63;;;12.80;;
6463;SDS011;3265;42.694;23.282;2024-02-21T04:45:31;19.93;;;12.27;;
6463;SDS011;3265;42.694;23.282;2024-02-21T04:48:15;20.80;;;12.90;;
6463;SDS011;3265;42.694;23.282;2024-02-21T04:50:44;19.17;;;12.07;;
6463;SDS011;3265;42.694;23.282;2024-02-21T04:53:11;18.20;;;12.27;;
6463;SDS011;3265;42.694;23.282;2024-02-21T04:55:39;24.30;;;16.23;;
6463;SDS011;3265;42.694;23.282;2024-02-21T04:58:08;28.10;;;16.63;;
6463;SDS011;3265;42.694;23.282;2024-02-21T05:00:35;28.60;;;16.10;;
6463;SDS011;3265;42.694;23.282;2024-02-21T05:03:02;32.70;;;19.03;;
6463;SDS011;3265;42.694;23.282;2024-02-21T05:05:29;32.80;;;18.17;;
6463;SDS011;3265;42.694;23.282;2024-02-21T05:07:56;31.50;;;18.07;;
6463;SDS011;3265;42.694;23.282;2024-02-21T05:10:23;30.37;;;16.93;;
6463;SDS011;3265;42.694;23.282;2024-02-21T05:12:51;27.40;;;17.23;;
6463;SDS011;3265;42.694;23.282;2024-02-21T05:15:18;27.47;;;15.97;;
6463;SDS011;3265;42.694;23.282;2024-02-21T05:17:45;27.57;;;16.67;;
6463;SDS011;3265;42.694;23.282;2024-02-21T05:20:12;28.07;;;16.93;;
6463;SDS011;3265;42.694;23.282;2024-02-21T05:22:43;28.80;;;17.77;;
6463;SDS011;3265;42.694;23.282;2024-02-21T05:25:10;34.53;;;20.27;;
6463;SDS011;3265;42.694;23.282;2024-02-21T05:27:41;33.77;;;19.67;;
6463;SDS011;3265;42.694;23.282;2024-02-21T05:30:11;41.80;;;24.47;;
6463;SDS011;3265;42.694;23.282;2024-02-21T05:32:38;42.40;;;23.97;;
6463;SDS011;3265;42.694;23.282;2024-02-21T05:35:05;48.97;;;27.03;;
6463;SDS011;3265;42.694;23.282;2024-02-21T05:37:33;47.37;;;26.97;;
6463;SDS011;3265;42.694;23.282;2024-02-21T05:40:00;40.60;;;24.07;;
6463;SDS011;3265;42.694;23.282;2024-02-21T05:42:27;52.70;;;30.93;;
6463;SDS011;3265;42.694;23.282;2024-02-21T05:44:54;56.10;;;34.50;;
6463;SDS011;3265;42.694;23.282;2024-02-21T05:47:22;61.63;;;35.77;;
6463;SDS011;3265;42.694;23.282;2024-02-21T05:49:55;54.80;;;33.40;;
6463;SDS011;3265;42.694;23.282;2024-02-21T05:52:29;60.20;;;34.40;;
6463;SDS011;3265;42.694;23.282;2024-02-21T05:55:10;47.10;;;27.17;;
6463;SDS011;3265;42.694;23.282;2024-02-21T05:57:37;42.90;;;25.33;;
6463;SDS011;3265;42.694;23.282;2024-02-21T06:00:08;45.30;;;27.07;;
6463;SDS011;3265;42.694;23.282;2024-02-21T06:02:37;39.20;;;22.80;;
6463;SDS011;3265;42.694;23.282;2024-02-21T06:05:04;46.37;;;25.40;;
6463;SDS011;3265;42.694;23.282;2024-02-21T06:07:32;43.97;;;23.23;;
6463;SDS011;3265;42.694;23.282;2024-02-21T06:09:59;39.80;;;21.80;;
6463;SDS011;3265;42.694;23.282;2024-02-21T06:12:26;32.20;;;18.57;;
6463;SDS011;3265;42.694;23.282;2024-02-21T06:14:53;27.23;;;16.37;;
6463;SDS011;3265;42.694;23.282;2024-02-21T06:17:22;27.60;;;16.83;;
6463;SDS011;3265;42.694;23.282;2024-02-21T06:19:50;27.67;;;16.07;;
6463;SDS011;3265;42.694;23.282;2024-02-21T06:22:17;26.93;;;15.57;;
6463;SDS011;3265;42.694;23.282;2024-02-21T06:24:44;24.80;;;15.43;;
6463;SDS011;3265;42.694;23.282;2024-02-21T06:27:11;29.70;;;17.30;;
6463;SDS011;3265;42.694;23.282;2024-02-21T06:29:40;27.83;;;16.60;;
6463;SDS011;3265;42.694;23.282;2024-02-21T06:32:09;27.13;;;16.10;;
6463;SDS011;3265;42.694;23.282;2024-02-21T06:34:36;23.80;;;14.57;;
6463;SDS011;3265;42.694;23.282;2024-02-21T06:37:04;24.63;;;16.03;;
6463;SDS011;3265;42.694;23.282;2024-02-21T06:39:33;25.80;;;15.97;;
6463;SDS011;3265;42.694;23.282;2024-02-21T06:42:02;26.57;;;16.63;;
6463;SDS011;3265;42.694;23.282;2024-02-21T06:44:29;26.30;;;15.97;;
6463;SDS011;3265;42.694;23.282;2024-02-21T06:47:04;27.30;;;15.80;;
6463;SDS011;3265;42.694;23.282;2024-02-21T06:49:31;27.03;;;15.30;;
6463;SDS011;3265;42.694;23.282;2024-02-21T06:51:58;35.07;;;19.40;;
6463;SDS011;3265;42.694;23.282;2024-02-21T06:54:29;23.77;;;14.40;;
6463;SDS011;3265;42.694;23.282;2024-02-21T06:56:56;25.27;;;14.93;;
6463;SDS011;3265;42.694;23.282;2024-02-21T06:59:23;22.80;;;14.63;;
6463;SDS011;3265;42.694;23.282;2024-02-21T07:01:53;21.90;;;13.60;;
6463;SDS011;3265;42.694;23.282;2024-02-21T07:04:24;23.47;;;14.07;;
6463;SDS011;3265;42.694;23.282;2024-02-21T07:06:52;26.17;;;14.23;;
6463;SDS011;3265;42.694;23.282;2024-02-21T07:09:18;26.93;;;15.73;;
6463;SDS011;3265;42.694;23.282;2024-02-21T07:11:49;24.10;;;15.27;;
6463;SDS011;3265;42.694;23.282;2024-02-21T07:14:17;23.10;;;14.13;;
6463;SDS011;3265;42.694;23.282;2024-02-21T07:16:45;27.27;;;15.17;;
6463;SDS011;3265;42.694;23.282;2024-02-21T07:19:11;23.17;;;13.97;;
6463;SDS011;3265;42.694;23.282;2024-02-21T07:21:38;21.60;;;13.83;;
6463;SDS011;3265;42.694;23.282;2024-02-21T07:24:07;29.00;;;15.63;;
6463;SDS011;3265;42.694;23.282;2024-02-21T07:26:37;24.10;;;14.73;;
6463;SDS011;3265;42.694;23.282;2024-02-21T07:29:11;21.13;;;13.90;;
6463;SDS011;3265;42.694;23.282;2024-02-21T07:31:38;21.47;;;13.43;;
6463;SDS011;3265;42.694;23.282;2024-02-21T07:34:08;22.30;;;14.00;;
6463;SDS011;3265;42.694;23.282;2024-02-21T07:36:36;21.73;;;13.17;;
6463;SDS011;3265;42.694;23.282;2024-02-21T07:39:04;22.23;;;13.17;;
6463;SDS011;3265;42.694;23.282;2024-02-21T07:41:31;21.17;;;13.40;;
6463;SDS011;3265;42.694;23.282;2024-02-21T07:43:58;26.60;;;15.43;;
6463;SDS011;3265;42.694;23.282;2024-02-21T07:46:29;26.10;;;15.80;;
6463;SDS011;3265;42.694;23.282;2024-02-21T07:48:56;22.90;;;13.47;;
6463;SDS011;3265;42.694;23.282;2024-02-21T07:51:23;23.63;;;14.90;;
6463;SDS011;3265;42.694;23.282;2024-02-21T07:53:53;26.47;;;15.47;;
6463;SDS011;3265;42.694;23.282;2024-02-21T07:56:21;24.13;;;14.57;;
6463;SDS011;3265;42.694;23.282;2024-02-21T07:58:47;23.60;;;14.30;;
6463;SDS011;3265;42.694;23.282;2024-02-21T08:01:17;22.50;;;13.47;;
6463;SDS011;3265;42.694;23.282;2024-02-21T08:03:47;24.23;;;13.60;;
6463;SDS011;3265;42.694;23.282;2024-02-21T08:06:14;22.73;;;14.23;;
6463;SDS011;3265;42.694;23.282;2024-02-21T08:08:41;19.87;;;13.13;;
6463;SDS011;3265;42.694;23.282;2024-02-21T08:11:08;24.47;;;15.43;;
6463;SDS011;3265;42.694;23.282;2024-02-21T08:13:35;27.57;;;16.57;;
6463;SDS011;3265;42.694;23.282;2024-02-21T08:16:01;25.57;;;14.70;;
6463;SDS011;3265;42.694;23.282;2024-02-21T08:18:30;24.40;;;14.53;;
6463;SDS011;3265;42.694;23.282;2024-02-21T08:21:00;21.17;;;13.30;;
6463;SDS011;3265;42.694;23.282;2024-02-21T08:23:29;22.40;;;14.63;;
6463;SDS011;3265;42.694;23.282;2024-02-21T08:25:56;25.40;;;15.20;;
6463;SDS011;3265;42.694;23.282;2024-02-21T08:28:23;25.83;;;14.93;;
6463;SDS011;3265;42.694;23.282;2024-02-21T08:30:51;24.00;;;14.53;;
6463;SDS011;3265;42.694;23.282;2024-02-21T08:33:17;22.37;;;13.23;;
6463;SDS011;3265;42.694;23.282;2024-02-21T08:35:49;20.20;;;13.23;;
6463;SDS011;3265;42.694;23.282;2024-02-21T08:38:17;22.20;;;13.97;;
6463;SDS011;3265;42.694;23.282;2024-02-21T08:40:44;23.70;;;13.43;;
6463;SDS011;3265;42.694;23.282;2024-02-21T08:43:11;22.20;;;14.43;;
6463;SDS011;3265;42.694;23.282;2024-02-21T08:45:38;22.10;;;13.97;;
6463;SDS011;3265;42.694;23.282;2024-02-21T08:48:05;24.13;;;13.77;;
6463;SDS011;3265;42.694;23.282;2024-02-21T08:50:33;23.47;;;14.60;;
6463;SDS011;3265;42.694;23.282;2024-02-21T08:53:07;21.10;;;13.30;;
6463;SDS011;3265;42.694;23.282;2024-02-21T08:55:35;24.20;;;13.07;;
6463;SDS011;3265;42.694;23.282;2024-02-21T08:58:04;20.33;;;13.70;;
6463;SDS011;3265;42.694;23.282;2024-02-21T09:00:31;19.97;;;12.57;;
6463;SDS011;3265;42.694;23.282;2024-02-21T09:03:02;19.03;;;12.60;;
6463;SDS011;3265;42.694;23.282;2024-02-21T09:05:30;21.93;;;13.47;;
6463;SDS011;3265;42.694;23.282;2024-02-21T09:07:56;23.03;;;13.13;;
6463;SDS011;3265;42.694;23.282;2024-02-21T09:10:23;21.53;;;14.10;;
6463;SDS011;3265;42.694;23.282;2024-02-21T09:12:53;22.40;;;13.93;;
6463;SDS011;3265;42.694;23.282;2024-02-21T09:15:20;22.43;;;14.27;;
6463;SDS011;3265;42.694;23.282;2024-02-21T09:17:49;23.87;;;15.03;;
6463;SDS011;3265;42.694;23.282;2024-02-21T09:20:19;24.60;;;13.83;;
6463;SDS011;3265;42.694;23.282;2024-02-21T09:22:46;25.17;;;13.60;;
6463;SDS011;3265;42.694;23.282;2024-02-21T09:25:13;21.43;;;13.50;;
6463;SDS011;3265;42.694;23.282;2024-02-21T09:27:40;23.63;;;14.40;;
6463;SDS011;3265;42.694;23.282;2024-02-21T09:30:08;20.37;;;13.60;;
6463;SDS011;3265;42.694;23.282;2024-02-21T09:32:36;21.60;;;14.47;;
6463;SDS011;3265;42.694;23.282;2024-02-21T09:35:03;22.87;;;15.63;;
6463;SDS011;3265;42.694;23.282;2024-02-21T09:37:31;23.17;;;15.00;;
6463;SDS011;3265;42.694;23.282;2024-02-21T09:39:58;18.87;;;12.43;;
6463;SDS011;3265;42.694;23.282;2024-02-21T09:42:26;18.83;;;12.90;;
6463;SDS011;3265;42.694;23.282;2024-02-21T09:45:03;22.37;;;14.50;;
6463;SDS011;3265;42.694;23.282;2024-02-21T09:47:44;25.30;;;14.87;;
6463;SDS011;3265;42.694;23.282;2024-02-21T09:50:19;19.40;;;13.73;;
6463;SDS011;3265;42.694;23.282;2024-02-21T09:52:47;19.87;;;13.50;;
6463;SDS011;3265;42.694;23.282;2024-02-21T09:55:31;19.57;;;12.60;;
6463;SDS011;3265;42.694;23.282;2024-02-21T09:58:00;18.80;;;12.50;;
6463;SDS011;3265;42.694;23.282;2024-02-21T10:00:29;18.37;;;12.20;;
6463;SDS011;3265;42.694;23.282;2024-02-21T10:02:56;19.77;;;12.47;;
6463;SDS011;3265;42.694;23.282;2024-02-21T10:05:24;19.33;;;12.27;;
6463;SDS011;3265;42.694;23.282;2024-02-21T10:07:52;21.87;;;12.63;;
6463;SDS011;3265;42.694;23.282;2024-02-21T10:10:21;16.37;;;11.77;;
6463;SDS011;3265;42.694;23.282;2024-02-21T10:13:10;18.17;;;11.43;;
6463;SDS011;3265;42.694;23.282;2024-02-21T10:15:39;16.47;;;11.30;;
6463;SDS011;3265;42.694;23.282;2024-02-21T10:18:10;16.07;;;10.87;;
6463;SDS011;3265;42.694;23.282;2024-02-21T10:20:37;16.37;;;11.20;;
6463;SDS011;3265;42.694;23.282;2024-02-21T10:23:05;12.80;;;9.50;;
6463;SDS011;3265;42.694;23.282;2024-02-21T10:25:34;14.60;;;10.13;;
6463;SDS011;3265;42.694;23.282;2024-02-21T10:28:03;14.90;;;8.87;;
6463;SDS011;3265;42.694;23.282;2024-02-21T10:30:30;17.17;;;9.23;;
6463;SDS011;3265;42.694;23.282;2024-02-21T10:32:58;12.80;;;8.90;;
6463;SDS011;3265;42.694;23.282;2024-02-21T10:35:28;13.07;;;9.57;;
6463;SDS011;3265;42.694;23.282;2024-02-21T10:37:59;12.10;;;9.43;;
6463;SDS011;3265;42.694;23.282;2024-02-21T10:40:29;11.53;;;8.27;;
6463;SDS011;3265;42.694;23.282;2024-02-21T10:42:57;13.57;;;8.73;;
6463;SDS011;3265;42.694;23.282;2024-02-21T10:45:44;12.60;;;9.10;;
6463;SDS011;3265;42.694;23.282;2024-02-21T10:48:14;13.07;;;9.10;;
6463;SDS011;3265;42.694;23.282;2024-02-21T10:51:02;10.80;;;8.70;;
6463;SDS011;3265;42.694;23.282;2024-02-21T10:53:40;12.30;;;8.13;;
6463;SDS011;3265;42.694;23.282;2024-02-21T10:56:21;10.73;;;8.27;;
6463;SDS011;3265;42.694;23.282;2024-02-21T10:58:52;10.53;;;8.00;;
6463;SDS011;3265;42.694;23.282;2024-02-21T11:01:23;11.77;;;8.00;;
6463;SDS011;3265;42.694;23.282;2024-02-21T11:03:55;12.90;;;7.07;;
6463;SDS011;3265;42.694;23.282;2024-02-21T11:06:24;8.47;;;6.63;;
6463;SDS011;3265;42.694;23.282;2024-02-21T11:09:03;10.70;;;7.20;;
6463;SDS011;3265;42.694;23.282;2024-02-21T11:11:32;7.93;;;6.20;;
6463;SDS011;3265;42.694;23.282;2024-02-21T11:14:06;7.57;;;6.40;;
6463;SDS011;3265;42.694;23.282;2024-02-21T11:16:37;8.43;;;6.13;;
6463;SDS011;3265;42.694;23.282;2024-02-21T11:19:21;8.43;;;5.10;;
6463;SDS011;3265;42.694;23.282;2024-02-21T11:21:49;7.13;;;5.20;;
6463;SDS011;3265;42.694;23.282;2024-02-21T11:24:26;9.17;;;5.60;;
6463;SDS011;3265;42.694;23.282;2024-02-21T11:26:55;6.97;;;5.50;;
6463;SDS011;3265;42.694;23.282;2024-02-21T11:29:23;7.00;;;5.63;;
6463;SDS011;3265;42.694;23.282;2024-02-21T11:31:50;7.43;;;5.50;;
6463;SDS011;3265;42.694;23.282;2024-02-21T11:34:18;7.60;;;5.70;;
6463;SDS011;3265;42.694;23.282;2024-02-21T11:36:47;15.50;;;6.40;;
6463;SDS011;3265;42.694;23.282;2024-02-21T11:39:19;7.53;;;6.00;;
6463;SDS011;3265;42.694;23.282;2024-02-21T11:41:47;9.00;;;6.70;;
6463;SDS011;3265;42.694;23.282;2024-02-21T11:44:24;9.03;;;5.80;;
6463;SDS011;3265;42.694;23.282;2024-02-21T11:46:51;9.67;;;6.63;;
6463;SDS011;3265;42.694;23.282;2024-02-21T11:49:18;9.47;;;6.23;;
6463;SDS011;3265;42.694;23.282;2024-02-21T11:51:46;8.47;;;5.87;;
6463;SDS011;3265;42.694;23.282;2024-02-21T11:57:04;10.67;;;7.30;;
6463;SDS011;3265;42.694;23.282;2024-02-21T11:59:31;9.90;;;6.83;;
6463;SDS011;3265;42.694;23.282;2024-02-21T12:01:58;11.43;;;7.17;;
6463;SDS011;3265;42.694;23.282;2024-02-21T12:04:28;13.20;;;7.27;;
6463;SDS011;3265;42.694;23.282;2024-02-21T12:06:57;17.23;;;8.00;;
6463;SDS011;3265;42.694;23.282;2024-02-21T12:09:24;12.93;;;8.30;;
6463;SDS011;3265;42.694;23.282;2024-02-21T12:11:59;11.60;;;7.00;;
6463;SDS011;3265;42.694;23.282;2024-02-21T12:14:30;10.40;;;7.20;;
6463;SDS011;3265;42.694;23.282;2024-02-21T12:16:58;12.07;;;8.07;;
6463;SDS011;3265;42.694;23.282;2024-02-21T12:19:28;10.67;;;7.70;;
6463;SDS011;3265;42.694;23.282;2024-02-21T12:21:58;10.73;;;7.30;;
6463;SDS011;3265;42.694;23.282;2024-02-21T12:24:26;15.00;;;9.73;;
6463;SDS011;3265;42.694;23.282;2024-02-21T12:26:56;15.30;;;9.07;;
6463;SDS011;3265;42.694;23.282;2024-02-21T12:29:24;16.30;;;8.73;;
6463;SDS011;3265;42.694;23.282;2024-02-21T12:31:51;13.60;;;8.33;;
6463;SDS011;3265;42.694;23.282;2024-02-21T12:34:19;12.43;;;7.40;;
6463;SDS011;3265;42.694;23.282;2024-02-21T12:36:47;10.70;;;6.30;;
6463;SDS011;3265;42.694;23.282;2024-02-21T12:39:15;8.03;;;5.90;;
6463;SDS011;3265;42.694;23.282;2024-02-21T12:41:42;9.10;;;6.63;;
6463;SDS011;3265;42.694;23.282;2024-02-21T12:44:10;12.00;;;7.40;;
6463;SDS011;3265;42.694;23.282;2024-02-21T12:46:39;14.23;;;7.80;;
6463;SDS011;3265;42.694;23.282;2024-02-21T12:49:06;10.50;;;7.27;;
6463;SDS011;3265;42.694;23.282;2024-02-21T12:51:34;10.87;;;8.23;;
6463;SDS011;3265;42.694;23.282;2024-02-21T12:54:04;12.63;;;8.50;;
6463;SDS011;3265;42.694;23.282;2024-02-21T12:56:32;14.47;;;8.37;;
6463;SDS011;3265;42.694;23.282;2024-02-21T12:58:59;12.53;;;8.60;;
6463;SDS011;3265;42.694;23.282;2024-02-21T13:01:32;12.40;;;8.30;;
6463;SDS011;3265;42.694;23.282;2024-02-21T13:03:59;12.90;;;8.13;;
6463;SDS011;3265;42.694;23.282;2024-02-21T13:06:26;11.57;;;7.30;;
6463;SDS011;3265;42.694;23.282;2024-02-21T13:08:53;10.40;;;7.17;;
6463;SDS011;3265;42.694;23.282;2024-02-21T13:11:20;10.13;;;7.33;;
6463;SDS011;3265;42.694;23.282;2024-02-21T13:13:48;15.27;;;8.03;;
6463;SDS011;3265;42.694;23.282;2024-02-21T13:16:15;17.07;;;9.50;;
6463;SDS011;3265;42.694;23.282;2024-02-21T13:18:42;13.43;;;9.90;;
6463;SDS011;3265;42.694;23.282;2024-02-21T13:21:10;11.33;;;7.73;;
6463;SDS011;3265;42.694;23.282;2024-02-21T13:23:37;12.33;;;8.40;;
6463;SDS011;3265;42.694;23.282;2024-02-21T13:26:07;10.70;;;7.87;;
6463;SDS011;3265;42.694;23.282;2024-02-21T13:28:35;12.83;;;8.87;;
6463;SDS011;3265;42.694;23.282;2024-02-21T13:31:03;12.37;;;8.10;;
6463;SDS011;3265;42.694;23.282;2024-02-21T13:33:30;15.23;;;8.07;;
6463;SDS011;3265;42.694;23.282;2024-02-21T13:35:57;9.80;;;7.43;;
6463;SDS011;3265;42.694;23.282;2024-02-21T13:38:27;13.67;;;7.90;;
6463;SDS011;3265;42.694;23.282;2024-02-21T13:40:53;12.80;;;8.17;;
6463;SDS011;3265;42.694;23.282;2024-02-21T13:43:20;12.83;;;8.53;;
6463;SDS011;3265;42.694;23.282;2024-02-21T13:45:56;12.37;;;8.17;;
6463;SDS011;3265;42.694;23.282;2024-02-21T13:48:25;9.47;;;7.03;;
6463;SDS011;3265;42.694;23.282;2024-02-21T13:50:54;14.07;;;7.93;;
6463;SDS011;3265;42.694;23.282;2024-02-21T13:53:21;12.53;;;8.10;;
6463;SDS011;3265;42.694;23.282;2024-02-21T13:55:48;13.30;;;8.97;;
6463;SDS011;3265;42.694;23.282;2024-02-21T13:58:15;16.17;;;10.03;;
6463;SDS011;3265;42.694;23.282;2024-02-21T14:00:42;11.53;;;7.47;;
6463;SDS011;3265;42.694;23.282;2024-02-21T14:03:09;14.63;;;8.07;;
6463;SDS011;3265;42.694;23.282;2024-02-21T14:05:37;12.40;;;7.60;;
6463;SDS011;3265;42.694;23.282;2024-02-21T14:08:05;14.03;;;8.57;;
6463;SDS011;3265;42.694;23.282;2024-02-21T14:10:33;20.17;;;8.87;;
6463;SDS011;3265;42.694;23.282;2024-02-21T14:13:00;11.23;;;7.97;;
6463;SDS011;3265;42.694;23.282;2024-02-21T14:15:28;11.77;;;7.67;;
6463;SDS011;3265;42.694;23.282;2024-02-21T14:17:55;11.53;;;8.27;;
6463;SDS011;3265;42.694;23.282;2024-02-21T14:20:22;14.00;;;8.67;;
6463;SDS011;3265;42.694;23.282;2024-02-21T14:22:51;16.40;;;8.90;;
6463;SDS011;3265;42.694;23.282;2024-02-21T14:25:18;18.37;;;8.07;;
6463;SDS011;3265;42.694;23.282;2024-02-21T14:27:44;14.33;;;8.97;;
6463;SDS011;3265;42.694;23.282;2024-02-21T14:30:12;18.17;;;9.80;;
6463;SDS011;3265;42.694;23.282;2024-02-21T14:32:41;13.70;;;8.70;;
6463;SDS011;3265;42.694;23.282;2024-02-21T14:35:12;15.23;;;9.23;;
6463;SDS011;3265;42.694;23.282;2024-02-21T14:37:42;12.30;;;8.43;;
6463;SDS011;3265;42.694;23.282;2024-02-21T14:40:11;13.87;;;8.70;;
6463;SDS011;3265;42.694;23.282;2024-02-21T14:42:39;16.10;;;9.60;;
6463;SDS011;3265;42.694;23.282;2024-02-21T14:45:06;16.80;;;9.70;;
6463;SDS011;3265;42.694;23.282;2024-02-21T14:47:34;17.37;;;9.40;;
6463;SDS011;3265;42.694;23.282;2024-02-21T14:50:02;15.17;;;9.20;;
6463;SDS011;3265;42.694;23.282;2024-02-21T14:52:33;16.57;;;8.73;;
6463;SDS011;3265;42.694;23.282;2024-02-21T14:55:00;14.77;;;9.10;;
6463;SDS011;3265;42.694;23.282;2024-02-21T14:57:31;14.03;;;8.33;;
6463;SDS011;3265;42.694;23.282;2024-02-21T14:59:57;13.57;;;8.47;;
6463;SDS011;3265;42.694;23.282;2024-02-21T15:02:24;15.97;;;9.90;;
6463;SDS011;3265;42.694;23.282;2024-02-21T15:04:53;13.87;;;9.17;;
6463;SDS011;3265;42.694;23.282;2024-02-21T15:07:20;17.40;;;10.57;;
6463;SDS011;3265;42.694;23.282;2024-02-21T15:09:49;28.23;;;11.00;;
6463;SDS011;3265;42.694;23.282;2024-02-21T15:12:16;20.20;;;9.87;;
6463;SDS011;3265;42.694;23.282;2024-02-21T15:14:44;15.90;;;9.47;;
6463;SDS011;3265;42.694;23.282;2024-02-21T15:17:11;26.57;;;10.80;;
6463;SDS011;3265;42.694;23.282;2024-02-21T15:19:38;17.43;;;10.60;;
6463;SDS011;3265;42.694;23.282;2024-02-21T15:22:08;22.83;;;12.40;;
6463;SDS011;3265;42.694;23.282;2024-02-21T15:24:36;16.77;;;9.53;;
6463;SDS011;3265;42.694;23.282;2024-02-21T15:27:04;15.77;;;9.67;;
6463;SDS011;3265;42.694;23.282;2024-02-21T15:29:30;19.03;;;10.13;;
6463;SDS011;3265;42.694;23.282;2024-02-21T15:31:59;17.27;;;9.57;;